Time;durP1;ratioP1;P1;durP2;ratioP2;P2;SDS_P1;SDS_P2;PMS_P1;PMS_P2;Temp;Humidity;BMP_temperature;BMP_pressure;BME280_temperature;BME280_humidity;BME280_pressure;Samples;Min_cycle;Max_cycle;Signal;HPM_P1;HPM_P2
2022/04/12 00:00:37;;;;;;;;;4.75;4.75;;;;;17.10;40.75;100164.44;5000423;28;45290;-59
2022/04/12 00:03:03;;;;;;;;;5.00;3.50;;;;;17.08;40.53;100167.19;4998665;28;48480;-58
2022/04/12 00:05:29;;;;;;;;;3.75;3.00;;;;;17.06;40.53;100174.34;5000220;28;45335;-58
2022/04/12 00:07:55;;;;;;;;;4.50;3.50;;;;;17.02;40.80;100168.31;5000489;28;45480;-59
2022/04/12 00:10:20;;;;;;;;;4.75;3.75;;;;;16.96;40.79;100163.31;5000199;28;45385;-59
2022/04/12 00:12:46;;;;;;;;;6.00;5.00;;;;;16.97;41.07;100164.19;5000325;28;45176;-58
2022/04/12 00:15:12;;;;;;;;;3.00;3.00;;;;;16.93;40.94;100155.53;5000119;28;45232;-59
2022/04/12 00:20:26;;;;;;;;;2.00;2.00;;;;;16.84;41.10;100147.97;5000010;28;45292;-59
2022/04/12 00:22:56;;;;;;;;;4.00;4.00;;;;;16.78;41.03;100154.47;4999963;28;45328;-58
2022/04/12 00:25:23;;;;;;;;;5.00;4.00;;;;;16.80;41.27;100163.19;5000100;28;45242;-59
2022/04/12 00:27:50;;;;;;;;;2.50;2.50;;;;;16.77;41.13;100176.63;4989323;28;45350;-59
2022/04/12 00:30:16;;;;;;;;;4.25;4.25;;;;;16.73;41.12;100178.56;5000059;28;45464;-59
2022/04/12 00:32:41;;;;;;;;;3.50;3.50;;;;;16.69;41.14;100177.00;4993123;28;46006;-59
2022/04/12 00:35:08;;;;;;;;;3.00;3.00;;;;;16.64;41.65;100181.66;4992604;28;45501;-59
2022/04/12 00:37:34;;;;;;;;;5.00;3.25;;;;;16.59;41.70;100175.72;4996384;28;45602;-59
2022/04/12 00:39:59;;;;;;;;;5.50;3.00;;;;;16.56;41.60;100178.50;4995835;28;45305;-59
2022/04/12 00:42:25;;;;;;;;;5.00;4.25;;;;;16.54;41.50;100173.28;4996513;28;46005;-59
2022/04/12 00:44:50;;;;;;;;;5.50;5.50;;;;;16.47;41.50;100166.56;4998587;28;45454;-59
2022/04/12 00:47:16;;;;;;;;;3.00;3.00;;;;;16.43;41.69;100159.69;4999702;28;45306;-59
2022/04/12 00:49:41;;;;;;;;;5.50;5.00;;;;;16.39;41.79;100164.28;4999386;28;45448;-59
2022/04/12 00:52:08;;;;;;;;;4.00;4.00;;;;;16.37;41.61;100159.97;4999144;28;45353;-59
2022/04/12 00:54:35;;;;;;;;;8.00;6.00;;;;;16.31;41.73;100154.97;4999720;28;45446;-59
2022/04/12 00:57:02;;;;;;;;;5.25;3.00;;;;;16.28;41.87;100147.16;4998015;28;45434;-59
2022/04/12 00:59:30;;;;;;;;;4.00;3.00;;;;;16.23;41.75;100142.91;4999435;28;45411;-59
2022/04/12 01:01:56;;;;;;;;;5.00;3.75;;;;;16.21;42.16;100158.06;4998180;28;47841;-60
2022/04/12 01:04:21;;;;;;;;;4.00;4.00;;;;;16.17;41.78;100153.81;4998676;28;45412;-60
2022/04/12 01:06:47;;;;;;;;;4.50;4.50;;;;;16.13;42.20;100152.25;5000114;28;45353;-59
2022/04/12 01:09:12;;;;;;;;;4.50;4.00;;;;;16.11;41.89;100143.50;5001022;28;45304;-60
2022/04/12 01:11:39;;;;;;;;;4.25;3.00;;;;;16.06;42.15;100140.19;5001795;28;45968;-59
2022/04/12 01:14:05;;;;;;;;;4.00;4.00;;;;;16.05;41.88;100139.34;5001753;28;45346;-59
2022/04/12 01:16:31;;;;;;;;;6.25;5.00;;;;;16.03;42.02;100132.41;5002802;28;45392;-59
2022/04/12 01:18:56;;;;;;;;;4.25;4.25;;;;;16.00;42.24;100130.75;5002721;28;45376;-59
2022/04/12 01:21:22;;;;;;;;;3.75;3.00;;;;;15.97;42.15;100128.25;5002606;28;45456;-59
2022/04/12 01:23:57;;;;;;;;;5.25;4.50;;;;;15.95;42.24;100135.41;5002958;28;45316;-59
2022/04/12 01:26:22;;;;;;;;;3.00;3.00;;;;;15.92;42.46;100140.84;5002717;28;45451;-59
2022/04/12 01:28:47;;;;;;;;;4.00;3.75;;;;;15.89;42.57;100139.19;5002560;28;45361;-59
2022/04/12 01:31:13;;;;;;;;;5.75;4.25;;;;;15.86;42.24;100139.34;5001279;28;45494;-59
2022/04/12 01:33:38;;;;;;;;;4.75;4.75;;;;;15.81;42.28;100141.31;5001140;28;45347;-59
2022/04/12 01:36:04;;;;;;;;;4.75;4.00;;;;;15.78;42.22;100136.16;5002760;28;45261;-59
2022/04/12 01:38:29;;;;;;;;;5.00;5.00;;;;;15.75;42.60;100136.28;5002655;28;45414;-59
2022/04/12 01:40:55;;;;;;;;;6.25;4.25;;;;;15.73;42.72;100132.84;5002352;28;46139;-60
2022/04/12 01:43:20;;;;;;;;;3.50;3.00;;;;;15.66;42.82;100126.97;5001200;28;45373;-59
2022/04/12 01:45:46;;;;;;;;;5.00;4.00;;;;;15.66;42.90;100131.41;5002759;28;45206;-60
2022/04/12 01:48:11;;;;;;;;;4.50;4.50;;;;;15.64;42.92;100138.56;5000985;28;45375;-60
2022/04/12 01:50:36;;;;;;;;;4.75;4.25;;;;;15.60;42.97;100149.28;5002365;28;45397;-60
2022/04/12 01:53:02;;;;;;;;;3.00;3.00;;;;;15.57;42.63;100148.56;5002478;28;45353;-60
2022/04/12 01:55:27;;;;;;;;;2.50;2.50;;;;;15.53;42.66;100147.81;5002378;28;45257;-60
2022/04/12 01:57:53;;;;;;;;;4.50;4.50;;;;;15.50;42.57;100141.84;5002591;28;45350;-60
2022/04/12 02:00:18;;;;;;;;;3.75;3.00;;;;;15.48;42.63;100148.97;5002190;28;46206;-61
2022/04/12 02:02:44;;;;;;;;;5.00;4.75;;;;;15.45;43.07;100157.91;5001980;28;45170;-59
2022/04/12 02:05:09;;;;;;;;;3.50;3.00;;;;;15.39;42.73;100137.84;5001107;28;45276;-59
2022/04/12 02:07:35;;;;;;;;;7.25;4.25;;;;;15.41;43.10;100138.66;5002236;28;45341;-60
2022/04/12 02:10:00;;;;;;;;;4.00;4.00;;;;;15.40;42.84;100136.09;5001876;28;46129;-61
2022/04/12 02:12:26;;;;;;;;;4.00;4.00;;;;;15.38;42.76;100133.50;5001090;28;45481;-61
2022/04/12 02:14:51;;;;;;;;;5.00;3.00;;;;;15.37;43.23;100122.97;5002178;28;45750;-60
2022/04/12 02:17:18;;;;;;;;;5.50;5.25;;;;;15.35;43.20;100128.31;5000846;28;45703;-60
2022/04/12 02:19:43;;;;;;;;;4.25;4.25;;;;;15.33;42.78;100147.84;5001618;28;45507;-60
2022/04/12 02:22:08;;;;;;;;;4.50;3.00;;;;;15.34;43.32;100142.50;5001768;28;45293;-60
2022/04/12 02:24:34;;;;;;;;;4.50;3.00;;;;;15.33;42.78;100131.97;5001897;28;45306;-59
2022/04/12 02:26:59;;;;;;;;;3.50;3.50;;;;;15.32;42.91;100127.59;5001823;28;45419;-59
2022/04/12 02:29:25;;;;;;;;;3.25;3.25;;;;;15.29;43.02;100136.53;5001717;28;46102;-59
2022/04/12 02:31:50;;;;;;;;;5.00;5.00;;;;;15.30;42.97;100140.06;5000782;28;45409;-59
2022/04/12 02:34:16;;;;;;;;;2.75;2.75;;;;;15.28;43.32;100129.50;5000440;28;45381;-60
2022/04/12 02:36:41;;;;;;;;;3.00;3.00;;;;;15.25;42.90;100117.28;5002016;28;45234;-60
2022/04/12 02:39:06;;;;;;;;;5.00;3.00;;;;;15.25;42.91;100122.56;5001474;28;45942;-59
2022/04/12 02:41:32;;;;;;;;;3.75;3.75;;;;;15.22;43.15;100127.13;5001839;28;45450;-60
2022/04/12 02:43:57;;;;;;;;;5.75;4.25;;;;;15.22;43.38;100141.25;5001778;28;45802;-59
2022/04/12 02:46:23;;;;;;;;;5.00;5.00;;;;;15.21;43.40;100136.03;5001868;28;45172;-59
2022/04/12 02:48:48;;;;;;;;;3.00;3.00;;;;;15.19;43.04;100141.34;5000084;28;47302;-59
2022/04/12 02:51:13;;;;;;;;;5.50;4.25;;;;;15.18;43.66;100131.72;5001704;28;45262;-59
2022/04/12 02:53:39;;;;;;;;;4.25;3.50;;;;;15.18;43.09;100133.50;5001643;28;45496;-59
2022/04/12 02:56:04;;;;;;;;;3.50;3.50;;;;;15.16;43.06;100136.22;5001605;28;45274;-59
2022/04/12 02:58:30;;;;;;;;;3.50;3.00;;;;;15.15;43.07;100126.53;5001311;28;46089;-59
2022/04/12 03:00:55;;;;;;;;;4.00;3.50;;;;;15.15;43.28;100128.34;5000105;28;45182;-59
2022/04/12 03:03:20;;;;;;;;;3.25;3.00;;;;;15.06;43.23;100119.00;5001351;28;45313;-59
2022/04/12 03:05:46;;;;;;;;;4.50;4.50;;;;;15.14;43.11;100131.91;5000014;28;45841;-60
2022/04/12 03:08:11;;;;;;;;;3.00;3.00;;;;;15.11;43.15;100128.47;5000633;28;46041;-59
2022/04/12 03:10:37;;;;;;;;;5.75;5.00;;;;;15.10;43.31;100123.25;5000982;28;45327;-60
2022/04/12 03:13:03;;;;;;;;;4.00;4.00;;;;;15.08;43.07;100110.09;5001384;28;45271;-59
2022/04/12 03:15:28;;;;;;;;;6.25;6.25;;;;;15.07;43.49;100103.06;5001206;28;45444;-59
2022/04/12 03:17:53;;;;;;;;;4.00;4.00;;;;;15.05;43.15;100104.06;5000881;28;46020;-60
2022/04/12 03:20:19;;;;;;;;;7.25;7.25;;;;;15.03;43.71;100104.13;5000947;28;45257;-58
2022/04/12 03:22:44;;;;;;;;;6.25;6.25;;;;;15.01;43.22;100105.13;5001227;28;45419;-60
2022/04/12 03:25:10;;;;;;;;;8.50;6.00;;;;;14.98;43.32;100092.88;5000798;28;45333;-60
2022/04/12 03:27:36;;;;;;;;;3.50;3.00;;;;;14.98;43.63;100102.59;5000922;28;45343;-60
2022/04/12 03:30:02;;;;;;;;;5.00;5.00;;;;;14.96;43.18;100102.66;5000868;28;45155;-60
2022/04/12 03:32:27;;;;;;;;;3.50;3.50;;;;;14.94;43.58;100104.50;5001166;28;45359;-60
2022/04/12 03:34:53;;;;;;;;;7.25;6.00;;;;;14.94;43.73;100109.78;5000571;28;45399;-60
2022/04/12 03:37:18;;;;;;;;;5.25;5.00;;;;;14.94;43.27;100102.75;4999454;28;46251;-60
2022/04/12 03:39:45;;;;;;;;;5.00;4.00;;;;;14.93;43.43;100103.66;5000736;28;45325;-60
2022/04/12 03:42:11;;;;;;;;;4.00;4.00;;;;;14.89;43.41;100107.38;5000835;28;45470;-60
2022/04/12 03:44:40;;;;;;;;;2.00;2.00;;;;;14.90;43.41;100113.50;5000572;28;45422;-60
2022/04/12 03:47:06;;;;;;;;;3.50;3.50;;;;;14.87;43.53;100119.78;5000575;28;46102;-60
2022/04/12 03:49:31;;;;;;;;;3.50;3.50;;;;;14.86;43.79;100123.34;5000223;28;45321;-59
2022/04/12 03:51:56;;;;;;;;;3.00;2.75;;;;;14.85;43.34;100124.28;5000737;28;45284;-60
2022/04/12 03:54:22;;;;;;;;;2.00;2.00;;;;;14.83;43.79;100123.50;5000499;28;45448;-60
2022/04/12 03:56:47;;;;;;;;;5.00;4.00;;;;;14.83;43.38;100122.63;4999189;28;48025;-59
2022/04/12 03:59:12;;;;;;;;;3.50;3.50;;;;;14.79;43.77;100113.94;5000484;28;45221;-60
2022/04/12 04:01:38;;;;;;;;;6.00;3.00;;;;;14.82;43.58;100120.88;5000520;28;45301;-59
2022/04/12 04:04:03;;;;;;;;;1.25;1.25;;;;;14.79;43.68;100113.94;4995359;28;45563;-59
2022/04/12 04:06:29;;;;;;;;;2.75;1.75;;;;;14.78;43.81;100120.19;4991537;28;46891;-60
2022/04/12 04:08:54;;;;;;;;;3.00;3.00;;;;;14.76;43.56;100103.50;5010893;28;45541;-59
2022/04/12 04:11:20;;;;;;;;;2.50;2.50;;;;;14.75;43.75;100112.34;4994572;28;45442;-59
2022/04/12 04:13:45;;;;;;;;;2.75;2.75;;;;;14.73;43.22;100112.44;4995551;28;45588;-59
2022/04/12 04:16:11;;;;;;;;;5.50;3.50;;;;;14.72;43.14;100104.56;4995321;28;45840;-59
2022/04/12 04:18:36;;;;;;;;;2.00;2.00;;;;;14.67;43.63;100104.75;4994750;28;45524;-60
2022/04/12 04:21:02;;;;;;;;;3.25;2.00;;;;;14.69;43.76;100112.59;4995538;28;45567;-59
2022/04/12 04:23:28;;;;;;;;;4.75;3.75;;;;;14.67;43.52;100109.19;4995627;28;45258;-59
2022/04/12 04:25:53;;;;;;;;;4.50;4.50;;;;;14.67;43.31;100122.41;4994320;28;46488;-59
2022/04/12 04:28:21;;;;;;;;;2.75;2.75;;;;;14.65;43.21;100111.03;4995725;28;45857;-59
2022/04/12 04:30:49;;;;;;;;;2.00;1.75;;;;;14.65;43.49;100113.66;4995902;28;45466;-57
2022/04/12 04:33:17;;;;;;;;;4.00;3.75;;;;;14.64;43.83;100126.00;4995301;28;45599;-58
2022/04/12 04:35:42;;;;;;;;;4.00;4.00;;;;;14.61;43.33;100111.09;4994901;28;48505;-58
2022/04/12 04:38:08;;;;;;;;;3.75;3.50;;;;;14.58;43.19;100118.31;4997419;28;45457;-58
2022/04/12 04:40:33;;;;;;;;;4.75;3.00;;;;;14.55;43.07;100121.94;4963703;28;45536;-58
2022/04/12 04:42:58;;;;;;;;;4.00;3.00;;;;;14.51;43.58;100117.69;4999365;28;45542;-58
2022/04/12 04:45:24;;;;;;;;;3.25;3.25;;;;;14.51;43.06;100120.34;4998642;28;46268;-58
2022/04/12 04:47:55;;;;;;;;;3.25;3.25;;;;;14.46;43.32;100120.53;4999494;28;45338;-59
2022/04/12 04:50:22;;;;;;;;;2.50;2.50;;;;;14.44;43.47;100125.03;4999906;28;45338;-58
2022/04/12 04:52:48;;;;;;;;;5.75;4.50;;;;;14.40;43.31;100134.00;4999673;28;45522;-58
2022/04/12 04:55:14;;;;;;;;;4.25;3.25;;;;;14.37;43.62;100146.47;4999425;28;45408;-58
2022/04/12 04:57:41;;;;;;;;;3.50;2.75;;;;;14.35;43.73;100150.94;4998404;28;45415;-59
2022/04/12 05:00:08;;;;;;;;;4.00;4.00;;;;;14.33;43.65;100147.53;4999781;28;45298;-58
2022/04/12 05:02:34;;;;;;;;;4.50;4.50;;;;;14.28;43.72;100151.19;4998990;28;45460;-57
2022/04/12 05:05:00;;;;;;;;;3.25;2.50;;;;;14.26;43.67;100146.88;4999430;28;46297;-59
2022/04/12 05:07:26;;;;;;;;;4.50;2.75;;;;;14.23;43.31;100149.66;4997870;28;45343;-59
2022/04/12 05:09:52;;;;;;;;;3.00;3.00;;;;;14.20;43.63;100152.41;4999580;28;45270;-58
2022/04/12 05:12:18;;;;;;;;;4.25;4.25;;;;;14.18;43.37;100148.97;4999635;28;45317;-57
2022/04/12 05:14:43;;;;;;;;;3.50;3.50;;;;;14.14;43.70;100159.66;4999337;28;45324;-58
2022/04/12 05:17:09;;;;;;;;;2.75;2.00;;;;;14.13;43.66;100168.50;4999566;28;45304;-58
2022/04/12 05:19:34;;;;;;;;;3.50;3.50;;;;;14.11;43.46;100182.69;4999581;28;45326;-58
2022/04/12 05:21:59;;;;;;;;;2.00;1.75;;;;;14.09;43.42;100182.75;4998084;28;45429;-58
2022/04/12 05:24:25;;;;;;;;;2.75;2.75;;;;;14.09;43.84;100181.91;4999053;28;46155;-58
2022/04/12 05:26:50;;;;;;;;;5.75;4.50;;;;;14.07;43.82;100179.28;4995751;28;45354;-58
2022/04/12 05:29:16;;;;;;;;;3.75;3.75;;;;;14.05;43.25;100178.50;4992477;28;45693;-58
2022/04/12 05:31:41;;;;;;;;;2.25;2.25;;;;;14.02;43.41;100172.47;5001393;28;45301;-58
2022/04/12 05:34:07;;;;;;;;;5.50;4.25;;;;;14.01;43.52;100194.53;5002384;28;46043;-58
2022/04/12 05:36:32;;;;;;;;;7.75;4.00;;;;;14.00;43.68;100179.59;5001499;28;45240;-58
2022/04/12 05:38:57;;;;;;;;;2.00;2.00;;;;;13.95;43.99;100170.06;5002852;28;45253;-58
2022/04/12 05:41:23;;;;;;;;;3.25;3.25;;;;;13.97;43.47;100184.06;5002506;28;45233;-58
2022/04/12 05:43:48;;;;;;;;;4.25;3.75;;;;;13.95;43.60;100179.78;5001088;28;47199;-58
2022/04/12 05:46:13;;;;;;;;;5.50;4.00;;;;;13.92;43.59;100170.19;5002106;28;45427;-59
2022/04/12 05:48:39;;;;;;;;;5.25;4.25;;;;;13.95;43.67;100177.97;5002401;28;45310;-59
2022/04/12 05:51:04;;;;;;;;;5.50;4.00;;;;;13.96;43.92;100192.91;5002315;28;45484;-59
2022/04/12 05:53:29;;;;;;;;;6.75;5.25;;;;;13.96;43.47;100198.19;5002383;28;46226;-60
2022/04/12 05:55:55;;;;;;;;;7.50;5.25;;;;;13.97;43.75;100193.75;5002194;28;45254;-59
2022/04/12 05:58:20;;;;;;;;;4.75;4.25;;;;;13.96;44.08;100195.56;5001330;28;45211;-59
2022/04/12 06:00:46;;;;;;;;;4.00;4.00;;;;;13.98;43.78;100190.22;5002332;28;45546;-59
2022/04/12 06:03:11;;;;;;;;;5.00;5.00;;;;;13.98;43.74;100192.84;5001917;28;45453;-60
2022/04/12 06:05:36;;;;;;;;;3.75;3.75;;;;;14.01;43.90;100207.72;5002141;28;45442;-59
2022/04/12 06:08:03;;;;;;;;;6.00;6.00;;;;;14.00;43.90;100195.44;5002186;28;45341;-59
2022/04/12 06:10:29;;;;;;;;;2.00;1.75;;;;;14.01;44.18;100213.00;5001803;28;45317;-59
2022/04/12 06:12:54;;;;;;;;;5.50;3.75;;;;;14.00;44.11;100208.63;5002023;28;45417;-59
2022/04/12 06:15:20;;;;;;;;;4.75;4.75;;;;;14.03;44.12;100213.81;5001909;28;45319;-59
2022/04/12 06:17:46;;;;;;;;;8.25;7.00;;;;;14.06;43.77;100208.41;5001977;28;45388;-59
2022/04/12 06:20:15;;;;;;;;;5.00;5.00;;;;;14.07;44.29;100213.63;5000423;28;45546;-60
2022/04/12 06:22:42;;;;;;;;;4.00;4.00;;;;;14.09;44.27;100216.25;5001459;28;45683;-59
2022/04/12 06:25:09;;;;;;;;;5.00;4.25;;;;;14.08;44.04;100202.16;5001579;28;45342;-59
2022/04/12 06:27:36;;;;;;;;;2.25;1.25;;;;;14.12;44.30;100214.34;5001390;28;45550;-59
2022/04/12 06:30:08;;;;;;;;;6.00;5.75;;;;;14.16;44.24;100223.00;5000190;28;45282;-59
2022/04/12 06:32:34;;;;;;;;;6.00;6.00;;;;;14.19;44.28;100237.88;4993079;28;46342;-59
2022/04/12 06:35:00;;;;;;;;;4.75;3.75;;;;;14.21;44.11;100242.19;5000191;28;45385;-59
2022/04/12 06:37:27;;;;;;;;;3.75;3.75;;;;;14.22;44.34;100240.41;5000348;28;45326;-59
2022/04/12 06:39:53;;;;;;;;;9.25;5.75;;;;;14.25;44.07;100240.28;5000534;28;45511;-61
2022/04/12 06:42:19;;;;;;;;;4.75;4.75;;;;;14.27;44.04;100243.75;5000560;28;46510;-61
2022/04/12 06:44:44;;;;;;;;;5.75;4.50;;;;;14.29;44.28;100248.06;5001130;28;45345;-59
2022/04/12 06:47:10;;;;;;;;;4.00;3.50;;;;;14.33;44.44;100254.09;5000076;28;45297;-60
2022/04/12 06:49:35;;;;;;;;;5.75;4.50;;;;;14.38;43.87;100256.56;5000854;28;45218;-63
2022/04/12 06:52:01;;;;;;;;;4.75;4.75;;;;;14.40;44.19;100262.66;5001179;28;46075;-61
2022/04/12 06:54:27;;;;;;;;;5.00;5.00;;;;;14.44;44.03;100259.84;5001025;28;45322;-58
2022/04/12 06:56:52;;;;;;;;;2.75;2.25;;;;;14.47;44.12;100262.34;5001384;28;45398;-58
2022/04/12 06:59:17;;;;;;;;;3.00;3.00;;;;;14.50;44.25;100265.81;5001298;28;45528;-57
2022/04/12 07:01:43;;;;;;;;;3.00;3.00;;;;;14.52;44.18;100270.13;5001212;28;45543;-57
2022/04/12 07:04:09;;;;;;;;;4.00;4.00;;;;;14.51;44.13;100278.97;5008090;28;45401;-58
2022/04/12 07:06:35;;;;;;;;;4.50;4.00;;;;;14.57;44.22;100283.16;5001493;28;45329;-57
2022/04/12 07:09:00;;;;;;;;;4.00;3.75;;;;;14.58;44.08;100290.19;5001113;28;45326;-57
2022/04/12 07:11:26;;;;;;;;;5.75;5.50;;;;;14.59;43.78;100298.06;4999847;28;48250;-57
2022/04/12 07:13:51;;;;;;;;;3.75;3.75;;;;;14.58;43.84;100293.69;5001451;28;45501;-57
2022/04/12 07:16:16;;;;;;;;;4.00;4.00;;;;;14.62;43.84;100297.91;5001158;28;45250;-58
2022/04/12 07:18:42;;;;;;;;;6.75;5.00;;;;;14.65;43.66;100301.41;5000907;28;45251;-58
2022/04/12 07:21:07;;;;;;;;;4.00;1.75;;;;;14.67;44.25;100302.22;5005180;28;45250;-57
2022/04/12 07:23:36;;;;;;;;;4.00;4.00;;;;;14.67;44.16;100297.78;5000861;28;45230;-57
2022/04/12 07:26:03;;;;;;;;;5.75;4.75;;;;;14.71;43.91;100299.38;5000381;28;45376;-57
2022/04/12 07:28:28;;;;;;;;;3.25;3.25;;;;;14.72;43.95;100303.75;5001080;28;45499;-57
2022/04/12 07:30:53;;;;;;;;;5.00;4.25;;;;;14.75;43.76;100308.94;5005610;28;46295;-58
2022/04/12 07:33:19;;;;;;;;;3.00;2.00;;;;;14.78;44.04;100315.91;5003594;28;45305;-58
2022/04/12 07:35:44;;;;;;;;;4.25;4.00;;;;;14.78;44.26;100311.47;5000995;28;45356;-57
2022/04/12 07:38:10;;;;;;;;;3.00;3.00;;;;;14.83;43.74;100311.28;5005211;28;45511;-57
2022/04/12 07:40:35;;;;;;;;;7.50;5.50;;;;;14.87;43.51;100312.03;5000443;28;45495;-57
2022/04/12 07:43:01;;;;;;;;;4.00;4.00;;;;;14.89;43.98;100311.06;5000702;28;45324;-57
2022/04/12 07:45:26;;;;;;;;;4.50;3.00;;;;;14.92;43.48;100308.28;4999716;28;45309;-57
2022/04/12 07:47:51;;;;;;;;;3.50;3.50;;;;;14.95;43.86;100294.06;5000470;28;45222;-57
2022/04/12 07:50:17;;;;;;;;;5.25;4.00;;;;;15.00;43.95;100299.19;4999228;28;48487;-57
2022/04/12 07:52:42;;;;;;;;;3.50;3.00;;;;;15.05;43.73;100308.66;5000603;28;45460;-58
2022/04/12 07:55:08;;;;;;;;;3.75;3.75;;;;;15.08;43.67;100300.59;5000720;28;45242;-58
2022/04/12 07:57:33;;;;;;;;;3.75;3.75;;;;;15.14;44.17;100307.41;5000532;28;45230;-58
2022/04/12 07:59:59;;;;;;;;;4.75;3.00;;;;;15.19;43.98;100294.00;5000202;28;45385;-57
2022/04/12 08:02:24;;;;;;;;;2.75;2.75;;;;;15.22;43.70;100291.22;4998908;28;45752;-57
2022/04/12 08:04:49;;;;;;;;;5.00;4.00;;;;;15.30;43.88;100286.50;5000645;28;45485;-57
2022/04/12 08:07:15;;;;;;;;;3.00;3.00;;;;;15.35;43.37;100291.59;5000347;28;45413;-58
2022/04/12 08:09:40;;;;;;;;;3.25;3.25;;;;;15.42;43.77;100295.69;5000165;28;45363;-57
2022/04/12 08:12:06;;;;;;;;;4.00;4.00;;;;;15.49;43.62;100297.19;5000216;28;45222;-58
2022/04/12 08:14:32;;;;;;;;;3.25;2.00;;;;;15.55;43.54;100293.44;4999202;28;45497;-59
2022/04/12 08:16:57;;;;;;;;;6.00;4.75;;;;;15.62;43.29;100289.56;5000292;28;45453;-57
2022/04/12 08:19:22;;;;;;;;;5.50;5.50;;;;;15.69;43.39;100287.53;4999894;28;45754;-58
2022/04/12 08:21:48;;;;;;;;;1.00;0.00;;;;;15.77;43.46;100298.66;4998765;28;45341;-56
2022/04/12 08:24:13;;;;;;;;;4.75;4.00;;;;;15.81;43.51;100292.31;5000257;28;45331;-57
2022/04/12 08:26:39;;;;;;;;;3.50;3.50;;;;;15.87;43.62;100289.44;5000137;28;45380;-58
2022/04/12 08:29:04;;;;;;;;;4.75;4.75;;;;;15.98;43.21;100288.09;5000063;28;46120;-58
2022/04/12 08:31:30;;;;;;;;;3.00;3.00;;;;;16.06;43.30;100292.13;5000131;28;45360;-59
2022/04/12 08:33:55;;;;;;;;;5.00;3.00;;;;;16.16;42.96;100289.94;4999995;28;45502;-56
2022/04/12 08:36:22;;;;;;;;;4.25;3.75;;;;;16.23;43.21;100290.53;5000070;28;45314;-58
2022/04/12 08:38:49;;;;;;;;;3.00;3.00;;;;;16.29;43.04;100278.78;4999889;28;46120;-59
2022/04/12 08:41:15;;;;;;;;;4.00;3.00;;;;;16.40;42.77;100281.78;4999857;28;45309;-59
2022/04/12 08:43:41;;;;;;;;;2.00;2.00;;;;;16.48;43.13;100273.50;4998641;28;45437;-57
2022/04/12 08:46:08;;;;;;;;;3.00;3.00;;;;;16.54;42.79;100276.72;4999965;28;45372;-58
2022/04/12 08:48:34;;;;;;;;;3.00;3.00;;;;;16.66;42.82;100279.75;4999652;28;45579;-58
2022/04/12 08:51:01;;;;;;;;;2.75;2.75;;;;;16.76;42.65;100285.47;4999896;28;45316;-58
2022/04/12 08:53:27;;;;;;;;;1.00;1.00;;;;;16.84;42.65;100284.19;4999973;28;45315;-58
2022/04/12 08:55:53;;;;;;;;;4.00;3.00;;;;;16.94;42.80;100291.72;4999694;28;45418;-59
2022/04/12 08:58:18;;;;;;;;;3.00;2.00;;;;;17.01;42.75;100272.78;4999540;28;46342;-58
2022/04/12 09:00:45;;;;;;;;;3.00;2.50;;;;;17.12;42.01;100285.53;5000003;28;45229;-59
2022/04/12 09:03:14;;;;;;;;;2.75;1.75;;;;;17.24;42.25;100284.06;4999645;28;45365;-59
2022/04/12 09:05:40;;;;;;;;;3.00;2.00;;;;;17.30;42.30;100285.56;5001757;28;45341;-59
2022/04/12 09:08:23;;;;;;;;;1.00;1.00;;;;;17.40;41.98;100289.47;5002803;28;46251;-59
2022/04/12 09:10:55;;;;;;;;;1.00;1.00;;;;;17.51;41.98;100284.50;5002973;28;45321;-58
2022/04/12 09:13:21;;;;;;;;;2.25;2.00;;;;;17.58;42.02;100284.19;5003114;28;45215;-61
2022/04/12 09:15:46;;;;;;;;;1.50;1.50;;;;;17.69;41.84;100289.81;5002876;28;45485;-59
2022/04/12 09:18:11;;;;;;;;;2.25;2.00;;;;;17.75;41.71;100288.63;5002623;28;46469;-58
2022/04/12 09:20:37;;;;;;;;;1.00;1.00;;;;;17.84;41.66;100283.69;5001466;28;45370;-58
2022/04/12 09:23:13;;;;;;;;;1.25;1.25;;;;;17.93;41.47;100284.16;5001699;28;45442;-58
2022/04/12 09:25:52;;;;;;;;;3.25;2.25;;;;;18.03;41.51;100280.97;5002710;28;45253;-58
2022/04/12 09:28:18;;;;;;;;;3.00;3.00;;;;;18.14;41.59;100293.69;5002675;28;46414;-58
2022/04/12 09:30:43;;;;;;;;;3.75;2.00;;;;;18.25;41.09;100282.50;5002731;28;45330;-58
2022/04/12 09:33:08;;;;;;;;;2.00;0.75;;;;;18.34;41.18;100283.81;5002723;28;45502;-58
2022/04/12 09:35:33;;;;;;;;;3.00;3.00;;;;;18.40;40.99;100270.19;5002883;28;45529;-58
2022/04/12 09:37:59;;;;;;;;;1.50;1.00;;;;;18.47;41.14;100279.53;5002409;28;46176;-58
2022/04/12 09:40:25;;;;;;;;;3.50;1.25;;;;;18.59;41.01;100274.47;5002660;28;45239;-58
2022/04/12 09:42:51;;;;;;;;;3.00;1.00;;;;;18.70;40.64;100276.53;5002656;28;45258;-58
2022/04/12 09:45:27;;;;;;;;;2.00;2.00;;;;;18.77;40.79;100286.75;5002496;28;45353;-58
2022/04/12 09:47:58;;;;;;;;;1.25;1.25;;;;;18.83;40.67;100262.47;5002379;28;45504;-58
2022/04/12 09:50:28;;;;;;;;;2.50;1.25;;;;;18.91;40.75;100275.38;5002356;28;45343;-58
2022/04/12 09:53:05;;;;;;;;;3.25;3.00;;;;;19.02;40.25;100255.25;5002702;28;45356;-58
2022/04/12 09:55:42;;;;;;;;;3.00;1.75;;;;;19.14;40.28;100263.44;5002218;28;45480;-58
2022/04/12 09:58:18;;;;;;;;;0.00;0.00;;;;;19.24;40.44;100262.88;5002247;28;45901;-58
2022/04/12 10:00:47;;;;;;;;;4.25;2.00;;;;;19.32;40.09;100263.31;5000753;28;45267;-59
2022/04/12 10:03:14;;;;;;;;;1.00;1.00;;;;;19.43;40.38;100271.53;5002133;28;45396;-58
2022/04/12 10:05:41;;;;;;;;;2.25;2.25;;;;;19.53;40.25;100261.16;5002187;28;45290;-58
2022/04/12 10:08:10;;;;;;;;;3.00;3.00;;;;;19.68;40.39;100266.53;5002132;28;45323;-59
2022/04/12 10:10:36;;;;;;;;;3.00;2.00;;;;;19.80;40.32;100271.13;5002239;28;45209;-59
2022/04/12 10:13:02;;;;;;;;;1.50;1.50;;;;;19.94;40.08;100265.00;5000951;28;45479;-59
2022/04/12 10:15:29;;;;;;;;;2.00;2.00;;;;;20.11;40.00;100256.81;5002106;28;45424;-58
2022/04/12 10:17:55;;;;;;;;;3.00;1.75;;;;;20.28;40.07;100253.09;5000612;28;46088;-59
2022/04/12 10:20:22;;;;;;;;;2.00;2.00;;;;;20.43;40.10;100237.94;5002035;28;45388;-58
2022/04/12 10:22:48;;;;;;;;;3.50;3.50;;;;;20.57;39.91;100245.06;5002024;28;45356;-59
2022/04/12 10:25:20;;;;;;;;;2.00;2.00;;;;;20.66;39.81;100232.09;5002157;28;45318;-58
2022/04/12 10:27:47;;;;;;;;;3.00;3.00;;;;;20.74;39.23;100229.78;5000404;28;46615;-58
2022/04/12 10:30:15;;;;;;;;;3.00;2.00;;;;;20.84;39.46;100236.28;5001769;28;45167;-58
2022/04/12 10:33:00;;;;;;;;;1.25;1.25;;;;;21.03;39.68;100233.25;5000296;28;45313;-59
2022/04/12 10:35:26;;;;;;;;;3.00;2.00;;;;;21.19;39.84;100221.53;5001825;28;45485;-59
2022/04/12 10:37:56;;;;;;;;;3.00;2.00;;;;;21.41;39.48;100228.97;5000083;28;47156;-59
2022/04/12 10:40:23;;;;;;;;;2.75;2.75;;;;;21.66;39.65;100214.81;5000216;28;45230;-59
2022/04/12 10:42:49;;;;;;;;;4.00;4.00;;;;;21.97;39.59;100218.00;5001653;28;45228;-59
2022/04/12 10:45:15;;;;;;;;;2.75;2.75;;;;;22.26;39.42;100217.75;5001714;28;45175;-58
2022/04/12 10:47:43;;;;;;;;;3.00;3.00;;;;;22.48;39.14;100226.97;5001263;28;45370;-58
2022/04/12 10:50:14;;;;;;;;;1.00;1.00;;;;;22.67;39.14;100243.38;5001552;28;45372;-58
2022/04/12 10:52:42;;;;;;;;;5.00;3.00;;;;;22.87;39.09;100255.31;5001588;28;45255;-58
2022/04/12 10:55:12;;;;;;;;;2.50;2.50;;;;;23.11;39.41;100243.72;5001304;28;45405;-58
2022/04/12 10:57:38;;;;;;;;;2.25;2.25;;;;;23.36;39.12;100268.72;5001526;28;45274;-58
2022/04/12 11:00:16;;;;;;;;;3.50;3.00;;;;;23.61;39.12;100254.31;5001203;28;45214;-58
2022/04/12 11:02:52;;;;;;;;;2.50;2.00;;;;;23.94;39.23;100266.09;5001375;28;45435;-58
2022/04/12 11:05:33;;;;;;;;;2.75;1.25;;;;;24.33;39.54;100239.75;4999978;28;45975;-58
2022/04/12 11:08:05;;;;;;;;;1.00;1.00;;;;;24.69;38.97;100249.50;5001293;28;45346;-58
2022/04/12 11:10:31;;;;;;;;;2.75;2.75;;;;;25.10;39.56;100253.31;5000977;28;45294;-58
2022/04/12 11:13:10;;;;;;;;;2.00;2.00;;;;;25.53;39.02;100278.47;5001132;28;45629;-58
2022/04/12 11:15:37;;;;;;;;;4.00;3.75;;;;;25.88;38.90;100293.44;5000122;28;45346;-58
2022/04/12 11:18:15;;;;;;;;;4.00;2.00;;;;;26.18;39.25;100278.34;4999491;28;45930;-59
2022/04/12 11:20:43;;;;;;;;;4.00;4.00;;;;;26.48;38.88;100272.09;4999535;28;45297;-59
2022/04/12 11:23:11;;;;;;;;;3.00;3.00;;;;;26.80;38.25;100289.91;5000994;28;45245;-58